Time;durP1;ratioP1;P1;durP2;ratioP2;P2;SDS_P1;SDS_P2;PMS_P1;PMS_P2;Temp;Humidity;BMP_temperature;BMP_pressure;BME280_temperature;BME280_humidity;BME280_pressure;Samples;Min_cycle;Max_cycle;Signal;HPM_P1;HPM_P2
2021/07/16 00:00:51;;;;;;;;;;;;;;;;;;4988515;28;20354;-60
2021/07/16 00:03:17;;;;;;;;;;;;;;;;;;4984702;28;20028;-60
2021/07/16 00:05:43;;;;;;;;;;;;;;;;;;4988946;28;19986;-61
2021/07/16 00:08:09;;;;;;;;;;;;;;;;;;4988097;28;19991;-60
2021/07/16 00:10:34;;;;;;;;;;;;;;;;;;4988829;28;19998;-61
2021/07/16 00:13:00;;;;;;;;;;;;;;;;;;4989327;28;19986;-61
2021/07/16 00:15:26;;;;;;;;;;;;;;;;;;4989195;28;20110;-61
2021/07/16 00:17:52;;;;;;;;;;;;;;;;;;4988184;28;19998;-61
2021/07/16 00:20:18;;;;;;;;;;;;;;;;;;4988393;28;19991;-60
2021/07/16 00:22:44;;;;;;;;;;;;;;;;;;4989239;28;20573;-61
2021/07/16 00:25:10;;;;;;;;;;;;;;;;;;4988225;28;20503;-61
2021/07/16 00:27:36;;;;;;;;;;;;;;;;;;4988047;28;19994;-61
2021/07/16 00:30:02;;;;;;;;;;;;;;;;;;4987981;28;20002;-61
2021/07/16 00:32:28;;;;;;;;;;;;;;;;;;4989751;28;20125;-61
2021/07/16 00:34:54;;;;;;;;;;;;;;;;;;4988107;28;19997;-61
2021/07/16 00:37:20;;;;;;;;;;;;;;;;;;4988345;28;20564;-61
2021/07/16 00:39:46;;;;;;;;;;;;;;;;;;4987695;28;20003;-61
2021/07/16 00:42:12;;;;;;;;;;;;;;;;;;4988246;28;19991;-61
2021/07/16 00:44:38;;;;;;;;;;;;;;;;;;4987400;28;19994;-61
2021/07/16 00:47:04;;;;;;;;;;;;;;;;;;4988071;28;19998;-61
2021/07/16 00:49:30;;;;;;;;;;;;;;;;;;4988806;28;20097;-60
2021/07/16 00:51:56;;;;;;;;;;;;;;;;;;4988740;28;20464;-60
2021/07/16 00:54:22;;;;;;;;;;;;;;;;;;4988063;28;20089;-60
2021/07/16 00:56:48;;;;;;;;;;;;;;;;;;4987581;28;20078;-61
2021/07/16 00:59:16;;;;;;;;;;;;;;;;;;4988606;28;20499;-61
2021/07/16 01:01:42;;;;;;;;;;;;;;;;;;4987929;28;20013;-61
2021/07/16 01:04:08;;;;;;;;;;;;;;;;;;4988373;28;20350;-61
2021/07/16 01:06:34;;;;;;;;;;;;;;;;;;4987538;28;19987;-61
2021/07/16 01:09:00;;;;;;;;;;;;;;;;;;5003301;28;20014;-62
2021/07/16 01:11:26;;;;;;;;;;;;;;;;;;4987939;28;20012;-61
2021/07/16 01:13:51;;;;;;;;;;;;;;;;;;4988195;28;19986;-61
2021/07/16 01:16:17;;;;;;;;;;;;;;;;;;4986869;28;19994;-61
2021/07/16 01:18:43;;;;;;;;;;;;;;;;;;4987305;28;19987;-61
2021/07/16 01:21:09;;;;;;;;;;;;;;;;;;4987305;28;20010;-60
2021/07/16 01:23:35;;;;;;;;;;;;;;;;;;4987349;28;20033;-61
2021/07/16 01:26:01;;;;;;;;;;;;;;;;;;4987937;28;20051;-62
2021/07/16 01:28:27;;;;;;;;;;;;;;;;;;4988759;28;20003;-61
2021/07/16 01:30:53;;;;;;;;;;;;;;;;;;4987076;28;20005;-61
2021/07/16 01:33:19;;;;;;;;;;;;;;;;;;4988152;28;19995;-61
2021/07/16 01:35:45;;;;;;;;;;;;;;;;;;4986746;28;19987;-61
2021/07/16 01:38:11;;;;;;;;;;;;;;;;;;4988065;28;19987;-61
2021/07/16 01:40:39;;;;;;;;;;;;;;;;;;4986870;28;19983;-60
2021/07/16 01:43:04;;;;;;;;;;;;;;;;;;4987777;28;19995;-60
2021/07/16 01:45:30;;;;;;;;;;;;;;;;;;4988165;28;19982;-60
2021/07/16 01:47:56;;;;;;;;;;;;;;;;;;4987335;28;20009;-60
2021/07/16 01:50:22;;;;;;;;;;;;;;;;;;4986295;28;20026;-60
2021/07/16 01:52:48;;;;;;;;;;;;;;;;;;4986871;28;20042;-60
2021/07/16 01:55:14;;;;;;;;;;;;;;;;;;4986809;28;20452;-59
2021/07/16 01:57:40;;;;;;;;;;;;;;;;;;4987767;28;20448;-59
2021/07/16 02:00:06;;;;;;;;;;;;;;;;;;4987032;28;19990;-60
2021/07/16 02:02:32;;;;;;;;;;;;;;;;;;4986845;28;20030;-60
2021/07/16 02:04:58;;;;;;;;;;;;;;;;;;4986749;28;19987;-60
2021/07/16 02:07:24;;;;;;;;;;;;;;;;;;4987705;28;19994;-60
2021/07/16 02:09:50;;;;;;;;;;;;;;;;;;4986459;28;20037;-60
2021/07/16 02:12:16;;;;;;;;;;;;;;;;;;4987242;28;19994;-60
2021/07/16 02:14:42;;;;;;;;;;;;;;;;;;4987242;28;20037;-60
2021/07/16 02:17:08;;;;;;;;;;;;;;;;;;4986937;28;19986;-60
2021/07/16 02:19:34;;;;;;;;;;;;;;;;;;4986741;28;20030;-60
2021/07/16 02:22:00;;;;;;;;;;;;;;;;;;4985132;28;19987;-60
2021/07/16 02:24:26;;;;;;;;;;;;;;;;;;4986455;28;19987;-60
2021/07/16 02:26:52;;;;;;;;;;;;;;;;;;4987278;28;20074;-60
2021/07/16 02:29:18;;;;;;;;;;;;;;;;;;5001485;28;20548;-60
2021/07/16 02:31:49;;;;;;;;;;;;;;;;;;4986604;28;20097;-60
2021/07/16 02:34:14;;;;;;;;;;;;;;;;;;4986697;28;20026;-60
2021/07/16 02:36:40;;;;;;;;;;;;;;;;;;4987465;28;20037;-60
2021/07/16 02:39:06;;;;;;;;;;;;;;;;;;4986818;28;19986;-60
2021/07/16 02:41:32;;;;;;;;;;;;;;;;;;4986536;28;19991;-60
2021/07/16 02:43:58;;;;;;;;;;;;;;;;;;4987693;28;19989;-60
2021/07/16 02:46:24;;;;;;;;;;;;;;;;;;4985772;28;19991;-60
2021/07/16 02:48:50;;;;;;;;;;;;;;;;;;4987284;28;20013;-60
2021/07/16 02:51:16;;;;;;;;;;;;;;;;;;4986348;28;19995;-60
2021/07/16 02:53:42;;;;;;;;;;;;;;;;;;4990175;28;19999;-59
2021/07/16 02:56:08;;;;;;;;;;;;;;;;;;4989077;28;20488;-60
2021/07/16 02:58:34;;;;;;;;;;;;;;;;;;4990167;28;19994;-59
2021/07/16 03:01:00;;;;;;;;;;;;;;;;;;4990037;28;19987;-59
2021/07/16 03:03:26;;;;;;;;;;;;;;;;;;4991504;28;19982;-60
2021/07/16 03:05:52;;;;;;;;;;;;;;;;;;4989369;28;19991;-59
2021/07/16 03:08:18;;;;;;;;;;;;;;;;;;4990292;28;19993;-61
2021/07/16 03:10:44;;;;;;;;;;;;;;;;;;4989531;28;20212;-61
2021/07/16 03:13:10;;;;;;;;;;;;;;;;;;4990517;28;20001;-60
2021/07/16 03:15:36;;;;;;;;;;;;;;;;;;4989216;28;20085;-60
2021/07/16 03:18:02;;;;;;;;;;;;;;;;;;4990120;28;20117;-60
2021/07/16 03:20:27;;;;;;;;;;;;;;;;;;4991228;28;20078;-60
2021/07/16 03:22:53;;;;;;;;;;;;;;;;;;4990307;28;19982;-60
2021/07/16 03:25:19;;;;;;;;;;;;;;;;;;4989139;28;20014;-60
2021/07/16 03:27:45;;;;;;;;;;;;;;;;;;4989239;28;19994;-60
2021/07/16 03:30:11;;;;;;;;;;;;;;;;;;4989592;28;20111;-60
2021/07/16 03:32:37;;;;;;;;;;;;;;;;;;4989820;28;19999;-60
2021/07/16 03:35:03;;;;;;;;;;;;;;;;;;5004535;28;19987;-60
2021/07/16 03:37:29;;;;;;;;;;;;;;;;;;4989907;28;20001;-60
2021/07/16 03:39:55;;;;;;;;;;;;;;;;;;4988806;28;19987;-60
2021/07/16 03:42:21;;;;;;;;;;;;;;;;;;4988734;28;20088;-60
2021/07/16 03:44:47;;;;;;;;;;;;;;;;;;4989327;28;20091;-60
2021/07/16 03:47:13;;;;;;;;;;;;;;;;;;5004223;28;20441;-60
2021/07/16 03:49:39;;;;;;;;;;;;;;;;;;4989320;28;20010;-60
2021/07/16 03:52:05;;;;;;;;;;;;;;;;;;4987818;28;20017;-59
2021/07/16 03:54:31;;;;;;;;;;;;;;;;;;4988882;28;20002;-60
2021/07/16 03:56:57;;;;;;;;;;;;;;;;;;4989631;28;19998;-60
2021/07/16 03:59:23;;;;;;;;;;;;;;;;;;4989436;28;20031;-60
2021/07/16 04:01:49;;;;;;;;;;;;;;;;;;4988861;28;19997;-60
2021/07/16 04:04:15;;;;;;;;;;;;;;;;;;4989810;28;20019;-60
2021/07/16 04:06:42;;;;;;;;;;;;;;;;;;4988189;28;19983;-60
2021/07/16 04:09:26;;;;;;;;;;;;;;;;;;4988991;28;20106;-60
2021/07/16 04:11:52;;;;;;;;;;;;;;;;;;4987169;28;19997;-60
2021/07/16 04:14:18;;;;;;;;;;;;;;;;;;4989594;28;19990;-60
2021/07/16 04:16:44;;;;;;;;;;;;;;;;;;4988644;28;19987;-59
2021/07/16 04:19:10;;;;;;;;;;;;;;;;;;4988126;28;20437;-59
2021/07/16 04:21:36;;;;;;;;;;;;;;;;;;4988679;28;20041;-59
2021/07/16 04:24:02;;;;;;;;;;;;;;;;;;4988749;28;19987;-59
2021/07/16 04:26:28;;;;;;;;;;;;;;;;;;4988017;28;20078;-59
2021/07/16 04:28:54;;;;;;;;;;;;;;;;;;4988201;28;20010;-60
2021/07/16 04:31:20;;;;;;;;;;;;;;;;;;4987941;28;19986;-59
2021/07/16 04:33:46;;;;;;;;;;;;;;;;;;4989063;28;19991;-60
2021/07/16 04:36:12;;;;;;;;;;;;;;;;;;5003300;28;20096;-60
2021/07/16 04:38:37;;;;;;;;;;;;;;;;;;4987515;28;19995;-59
2021/07/16 04:41:03;;;;;;;;;;;;;;;;;;4987135;28;19987;-60
2021/07/16 04:43:30;;;;;;;;;;;;;;;;;;4989110;28;19995;-59
2021/07/16 04:45:56;;;;;;;;;;;;;;;;;;4988132;28;19991;-59
2021/07/16 04:48:21;;;;;;;;;;;;;;;;;;4988712;28;19991;-59
2021/07/16 04:50:47;;;;;;;;;;;;;;;;;;4987346;28;19982;-58
2021/07/16 04:53:13;;;;;;;;;;;;;;;;;;4988651;28;20034;-58
2021/07/16 04:55:39;;;;;;;;;;;;;;;;;;4988103;28;19998;-59
2021/07/16 04:58:05;;;;;;;;;;;;;;;;;;4987287;28;20027;-59
2021/07/16 05:00:31;;;;;;;;;;;;;;;;;;4988871;28;19989;-59
2021/07/16 05:02:57;;;;;;;;;;;;;;;;;;4987949;28;19998;-59
2021/07/16 05:05:23;;;;;;;;;;;;;;;;;;4987788;28;19994;-59
2021/07/16 05:07:49;;;;;;;;;;;;;;;;;;4988292;28;19989;-59
2021/07/16 05:10:15;;;;;;;;;;;;;;;;;;4987702;28;20105;-59
2021/07/16 05:12:41;;;;;;;;;;;;;;;;;;4986567;28;20527;-59
2021/07/16 05:15:07;;;;;;;;;;;;;;;;;;4987709;28;19987;-59
2021/07/16 05:17:33;;;;;;;;;;;;;;;;;;5002674;28;19990;-59
2021/07/16 05:19:59;;;;;;;;;;;;;;;;;;4988844;28;19986;-59
2021/07/16 05:22:25;;;;;;;;;;;;;;;;;;4987734;28;20492;-60
2021/07/16 05:24:51;;;;;;;;;;;;;;;;;;4986787;28;19998;-60
2021/07/16 05:27:17;;;;;;;;;;;;;;;;;;5002233;28;19995;-61
2021/07/16 05:29:43;;;;;;;;;;;;;;;;;;4987387;28;20002;-62
2021/07/16 05:32:09;;;;;;;;;;;;;;;;;;4987669;28;20069;-62
2021/07/16 05:34:35;;;;;;;;;;;;;;;;;;4987474;28;19987;-62
2021/07/16 05:37:01;;;;;;;;;;;;;;;;;;4986773;28;20038;-62
2021/07/16 05:39:27;;;;;;;;;;;;;;;;;;4988347;28;20082;-61
2021/07/16 05:41:53;;;;;;;;;;;;;;;;;;4987139;28;20547;-61
2021/07/16 05:44:19;;;;;;;;;;;;;;;;;;4987280;28;19995;-61
2021/07/16 05:46:45;;;;;;;;;;;;;;;;;;4987098;28;20022;-62
2021/07/16 05:49:11;;;;;;;;;;;;;;;;;;4987699;28;20061;-58
2021/07/16 05:51:37;;;;;;;;;;;;;;;;;;4986727;28;20081;-59
2021/07/16 05:54:03;;;;;;;;;;;;;;;;;;4987477;28;19994;-59
2021/07/16 05:56:29;;;;;;;;;;;;;;;;;;4986737;28;19991;-59
2021/07/16 05:58:55;;;;;;;;;;;;;;;;;;4987317;28;19994;-60
2021/07/16 06:01:21;;;;;;;;;;;;;;;;;;4987756;28;20026;-60
2021/07/16 06:03:47;;;;;;;;;;;;;;;;;;4987519;28;19990;-59
2021/07/16 06:06:13;;;;;;;;;;;;;;;;;;4986922;28;20610;-60
2021/07/16 06:08:39;;;;;;;;;;;;;;;;;;4984631;28;20103;-60
2021/07/16 06:11:05;;;;;;;;;;;;;;;;;;4981451;28;20038;-61
2021/07/16 06:13:31;;;;;;;;;;;;;;;;;;4984681;28;19998;-60
2021/07/16 06:15:57;;;;;;;;;;;;;;;;;;4987003;28;19990;-60
2021/07/16 06:18:23;;;;;;;;;;;;;;;;;;4986538;28;20121;-60
2021/07/16 06:20:49;;;;;;;;;;;;;;;;;;4986493;28;19997;-60
2021/07/16 06:23:16;;;;;;;;;;;;;;;;;;4986912;28;19997;-61
2021/07/16 06:25:43;;;;;;;;;;;;;;;;;;4986144;28;19987;-61
2021/07/16 06:28:09;;;;;;;;;;;;;;;;;;4989543;28;19983;-61
2021/07/16 06:30:35;;;;;;;;;;;;;;;;;;4987906;28;19995;-61
2021/07/16 06:33:01;;;;;;;;;;;;;;;;;;4990995;28;20536;-60
2021/07/16 06:35:27;;;;;;;;;;;;;;;;;;4991394;28;20048;-60
2021/07/16 06:37:53;;;;;;;;;;;;;;;;;;4990746;28;19987;-60
2021/07/16 06:40:19;;;;;;;;;;;;;;;;;;4990629;28;20045;-60
2021/07/16 06:42:45;;;;;;;;;;;;;;;;;;4979364;28;19999;-60
2021/07/16 06:45:11;;;;;;;;;;;;;;;;;;4990740;28;20014;-60
2021/07/16 06:47:37;;;;;;;;;;;;;;;;;;4990884;28;20109;-60
2021/07/16 06:50:03;;;;;;;;;;;;;;;;;;4990968;28;20006;-60
2021/07/16 06:52:29;;;;;;;;;;;;;;;;;;4989859;28;19991;-60
2021/07/16 06:54:55;;;;;;;;;;;;;;;;;;4989495;28;20085;-60
2021/07/16 06:57:21;;;;;;;;;;;;;;;;;;4988844;28;20037;-60
2021/07/16 06:59:47;;;;;;;;;;;;;;;;;;4989268;28;20457;-60
2021/07/16 07:02:13;;;;;;;;;;;;;;;;;;4987725;28;20038;-60
2021/07/16 07:04:39;;;;;;;;;;;;;;;;;;4989656;28;19991;-61
2021/07/16 07:07:05;;;;;;;;;;;;;;;;;;4986693;28;19991;-61
2021/07/16 07:09:31;;;;;;;;;;;;;;;;;;4991552;28;20007;-60
2021/07/16 07:11:57;;;;;;;;;;;;;;;;;;4987422;28;20005;-60
2021/07/16 07:14:24;;;;;;;;;;;;;;;;;;4984819;28;19995;-60
2021/07/16 07:16:50;;;;;;;;;;;;;;;;;;4984729;28;20805;-60
2021/07/16 07:19:17;;;;;;;;;;;;;;;;;;4983251;28;19998;-60
2021/07/16 07:21:43;;;;;;;;;;;;;;;;;;4986761;28;20037;-60
2021/07/16 07:24:09;;;;;;;;;;;;;;;;;;4985616;28;19999;-60
2021/07/16 07:26:35;;;;;;;;;;;;;;;;;;4988462;28;19994;-60
2021/07/16 07:29:01;;;;;;;;;;;;;;;;;;4985783;28;20003;-60
2021/07/16 07:31:27;;;;;;;;;;;;;;;;;;4983170;28;20432;-59
2021/07/16 07:33:54;;;;;;;;;;;;;;;;;;4980397;28;20029;-60
2021/07/16 07:36:20;;;;;;;;;;;;;;;;;;4984082;28;20006;-60
2021/07/16 07:38:46;;;;;;;;;;;;;;;;;;4989081;28;19994;-59
2021/07/16 07:41:12;;;;;;;;;;;;;;;;;;4986894;28;19994;-60
2021/07/16 07:43:38;;;;;;;;;;;;;;;;;;4981536;28;20085;-60
2021/07/16 07:46:04;;;;;;;;;;;;;;;;;;4980352;28;20951;-60
2021/07/16 07:48:30;;;;;;;;;;;;;;;;;;4985784;28;19989;-60
2021/07/16 07:50:57;;;;;;;;;;;;;;;;;;4980831;28;19991;-59
2021/07/16 07:53:23;;;;;;;;;;;;;;;;;;4917015;28;1859114;-60
2021/07/16 07:55:49;;;;;;;;;;;;;;;;;;4983075;28;20397;-60
2021/07/16 07:58:15;;;;;;;;;;;;;;;;;;4986697;28;20014;-59
2021/07/16 08:00:40;;;;;;;;;;;;;;;;;;4988569;28;20507;-60
2021/07/16 08:03:06;;;;;;;;;;;;;;;;;;4988892;28;19990;-59
2021/07/16 08:05:32;;;;;;;;;;;;;;;;;;4990195;28;19983;-59
2021/07/16 08:07:58;;;;;;;;;;;;;;;;;;4984939;28;20040;-59
2021/07/16 08:10:24;;;;;;;;;;;;;;;;;;4998977;28;20022;-60
2021/07/16 08:12:50;;;;;;;;;;;;;;;;;;4988958;28;19987;-59
2021/07/16 08:15:16;;;;;;;;;;;;;;;;;;4989332;28;20074;-59
2021/07/16 08:17:42;;;;;;;;;;;;;;;;;;4988742;28;19987;-58
2021/07/16 08:20:08;;;;;;;;;;;;;;;;;;4970971;28;19992;-58
2021/07/16 08:22:34;;;;;;;;;;;;;;;;;;4983352;28;19991;-58
2021/07/16 08:25:00;;;;;;;;;;;;;;;;;;4988247;28;20033;-59
2021/07/16 08:27:26;;;;;;;;;;;;;;;;;;4988787;28;20041;-59
2021/07/16 08:29:52;;;;;;;;;;;;;;;;;;4989003;28;20010;-59
2021/07/16 08:32:18;;;;;;;;;;;;;;;;;;4988988;28;19994;-58
2021/07/16 08:34:44;;;;;;;;;;;;;;;;;;4988599;28;19991;-58
2021/07/16 08:37:10;;;;;;;;;;;;;;;;;;4988708;28;20049;-58
2021/07/16 08:39:36;;;;;;;;;;;;;;;;;;4988052;28;19997;-58
2021/07/16 08:42:02;;;;;;;;;;;;;;;;;;4988026;28;19987;-59
2021/07/16 08:44:28;;;;;;;;;;;;;;;;;;4976994;28;20070;-59
2021/07/16 08:46:54;;;;;;;;;;;;;;;;;;4969314;28;19990;-59
2021/07/16 08:49:20;;;;;;;;;;;;;;;;;;4968891;28;20102;-59
2021/07/16 08:51:46;;;;;;;;;;;;;;;;;;4986940;28;19987;-59
2021/07/16 08:54:15;;;;;;;;;;;;;;;;;;4987791;28;20380;-58
2021/07/16 08:56:41;;;;;;;;;;;;;;;;;;4988332;28;20033;-59
2021/07/16 08:59:10;;;;;;;;;;;;;;;;;;4987897;28;19986;-59
2021/07/16 09:01:39;;;;;;;;;;;;;;;;;;4982454;28;20022;-58
2021/07/16 09:04:05;;;;;;;;;;;;;;;;;;4988338;28;20089;-59
2021/07/16 09:06:30;;;;;;;;;;;;;;;;;;4987644;28;20097;-59
2021/07/16 09:08:56;;;;;;;;;;;;;;;;;;4981234;28;20014;-59
2021/07/16 09:11:22;;;;;;;;;;;;;;;;;;4969987;28;20014;-59
2021/07/16 09:13:49;;;;;;;;;;;;;;;;;;4987871;28;20362;-58
2021/07/16 09:16:15;;;;;;;;;;;;;;;;;;4988052;28;20060;-59
2021/07/16 09:18:41;;;;;;;;;;;;;;;;;;4988610;28;20512;-59
2021/07/16 09:21:07;;;;;;;;;;;;;;;;;;4987174;28;19987;-59
2021/07/16 09:23:34;;;;;;;;;;;;;;;;;;4987883;28;20002;-59
2021/07/16 09:26:01;;;;;;;;;;;;;;;;;;4987194;28;19994;-59
2021/07/16 09:28:27;;;;;;;;;;;;;;;;;;4987450;28;20350;-59
2021/07/16 09:30:55;;;;;;;;;;;;;;;;;;4986592;28;19994;-58
2021/07/16 09:33:21;;;;;;;;;;;;;;;;;;4987329;28;20085;-59
2021/07/16 09:35:47;;;;;;;;;;;;;;;;;;4988226;28;20149;-59
2021/07/16 09:38:13;;;;;;;;;;;;;;;;;;4987430;28;20479;-59
2021/07/16 09:40:39;;;;;;;;;;;;;;;;;;4981776;28;19997;-60
2021/07/16 09:43:05;;;;;;;;;;;;;;;;;;5000507;28;19995;-60
2021/07/16 09:45:31;;;;;;;;;;;;;;;;;;4983365;28;19991;-59
2021/07/16 09:47:59;;;;;;;;;;;;;;;;;;4984103;28;20014;-59
2021/07/16 09:50:25;;;;;;;;;;;;;;;;;;4981923;28;20019;-60
2021/07/16 09:52:50;;;;;;;;;;;;;;;;;;4983889;28;19994;-60
2021/07/16 09:55:18;;;;;;;;;;;;;;;;;;4985695;28;20090;-60
2021/07/16 09:57:44;;;;;;;;;;;;;;;;;;4983348;28;19995;-59
2021/07/16 10:00:11;;;;;;;;;;;;;;;;;;4978226;28;20069;-59
2021/07/16 10:02:37;;;;;;;;;;;;;;;;;;4980441;28;19997;-59
2021/07/16 10:05:03;;;;;;;;;;;;;;;;;;4979449;28;19987;-60
2021/07/16 10:07:29;;;;;;;;;;;;;;;;;;4975361;28;19991;-60
2021/07/16 10:09:55;;;;;;;;;;;;;;;;;;4977302;28;20007;-60
2021/07/16 10:12:21;;;;;;;;;;;;;;;;;;4987586;28;19994;-60
2021/07/16 10:14:47;;;;;;;;;;;;;;;;;;4979461;28;19987;-60
2021/07/16 10:17:13;;;;;;;;;;;;;;;;;;4973227;28;19991;-60
2021/07/16 10:19:39;;;;;;;;;;;;;;;;;;4996483;28;20112;-60
2021/07/16 10:22:05;;;;;;;;;;;;;;;;;;4986109;28;19990;-60
2021/07/16 10:24:34;;;;;;;;;;;;;;;;;;4983579;28;20010;-59
2021/07/16 10:27:02;;;;;;;;;;;;;;;;;;4980507;28;20408;-59
2021/07/16 10:29:28;;;;;;;;;;;;;;;;;;4982786;28;20104;-61
2021/07/16 10:31:54;;;;;;;;;;;;;;;;;;4981219;28;20483;-60
2021/07/16 10:34:20;;;;;;;;;;;;;;;;;;4985072;28;19991;-59
2021/07/16 10:36:47;;;;;;;;;;;;;;;;;;4983356;28;20511;-59
2021/07/16 10:39:13;;;;;;;;;;;;;;;;;;4982824;28;20090;-58
2021/07/16 10:41:40;;;;;;;;;;;;;;;;;;4982801;28;20081;-59
2021/07/16 10:44:06;;;;;;;;;;;;;;;;;;4983267;28;19994;-59
2021/07/16 10:46:32;;;;;;;;;;;;;;;;;;4983590;28;19990;-59
2021/07/16 10:48:58;;;;;;;;;;;;;;;;;;4983027;28;20010;-59
2021/07/16 10:51:25;;;;;;;;;;;;;;;;;;4982733;28;19990;-59
2021/07/16 10:53:52;;;;;;;;;;;;;;;;;;4981703;28;20002;-60
2021/07/16 10:56:19;;;;;;;;;;;;;;;;;;4984839;28;19994;-59
2021/07/16 10:58:46;;;;;;;;;;;;;;;;;;4982408;28;20036;-59
2021/07/16 11:01:12;;;;;;;;;;;;;;;;;;4982621;28;20005;-60
2021/07/16 11:03:41;;;;;;;;;;;;;;;;;;4983623;28;20365;-59
2021/07/16 11:06:07;;;;;;;;;;;;;;;;;;4987892;28;19987;-60
2021/07/16 11:08:34;;;;;;;;;;;;;;;;;;4984705;28;20531;-60
2021/07/16 11:11:00;;;;;;;;;;;;;;;;;;4982732;28;20504;-60
2021/07/16 11:13:26;;;;;;;;;;;;;;;;;;4981708;28;20074;-60
2021/07/16 11:15:52;;;;;;;;;;;;;;;;;;4989459;28;19998;-59
2021/07/16 11:18:18;;;;;;;;;;;;;;;;;;4989059;28;20073;-60
2021/07/16 11:20:44;;;;;;;;;;;;;;;;;;4987845;28;20002;-60
2021/07/16 11:23:10;;;;;;;;;;;;;;;;;;4990081;28;20053;-60
2021/07/16 11:25:38;;;;;;;;;;;;;;;;;;4985299;28;19987;-59
2021/07/16 11:28:04;;;;;;;;;;;;;;;;;;4985641;28;19998;-58
2021/07/16 11:30:30;;;;;;;;;;;;;;;;;;4986176;28;20006;-57
2021/07/16 11:32:56;;;;;;;;;;;;;;;;;;4986037;28;20085;-57
2021/07/16 11:35:21;;;;;;;;;;;;;;;;;;4986135;28;20524;-58
2021/07/16 11:37:48;;;;;;;;;;;;;;;;;;4986732;28;20037;-57
2021/07/16 11:40:14;;;;;;;;;;;;;;;;;;4985634;28;20457;-57
2021/07/16 11:42:40;;;;;;;;;;;;;;;;;;4984990;28;20034;-57
2021/07/16 11:45:06;;;;;;;;;;;;;;;;;;4985854;28;19990;-57
2021/07/16 11:47:32;;;;;;;;;;;;;;;;;;4985774;28;20001;-57
2021/07/16 11:50:01;;;;;;;;;;;;;;;;;;4985084;28;20093;-57
2021/07/16 11:52:27;;;;;;;;;;;;;;;;;;4985701;28;20057;-57
2021/07/16 11:54:54;;;;;;;;;;;;;;;;;;4984614;28;19995;-57
2021/07/16 11:57:20;;;;;;;;;;;;;;;;;;4985548;28;20380;-57
2021/07/16 11:59:46;;;;;;;;;;;;;;;;;;4984214;28;20005;-58
2021/07/16 12:02:11;;;;;;;;;;;;;;;;;;4985693;28;20029;-58
2021/07/16 12:04:37;;;;;;;;;;;;;;;;;;4985050;28;19991;-57
2021/07/16 12:07:03;;;;;;;;;;;;;;;;;;4985795;28;20018;-57
2021/07/16 12:09:29;;;;;;;;;;;;;;;;;;4984211;28;20050;-58
2021/07/16 12:11:55;;;;;;;;;;;;;;;;;;4983553;28;20026;-57
2021/07/16 12:14:21;;;;;;;;;;;;;;;;;;4984493;28;19994;-57
2021/07/16 12:16:47;;;;;;;;;;;;;;;;;;4984213;28;19998;-57
2021/07/16 12:19:14;;;;;;;;;;;;;;;;;;4984824;28;20053;-57
2021/07/16 12:21:42;;;;;;;;;;;;;;;;;;4985790;28;19987;-58
2021/07/16 12:24:07;;;;;;;;;;;;;;;;;;4983458;28;19987;-57
2021/07/16 12:26:33;;;;;;;;;;;;;;;;;;4985473;28;20465;-57
2021/07/16 12:28:59;;;;;;;;;;;;;;;;;;4985955;28;20018;-57
2021/07/16 12:31:25;;;;;;;;;;;;;;;;;;4984591;28;20026;-58
2021/07/16 12:33:51;;;;;;;;;;;;;;;;;;4987809;28;19987;-58
2021/07/16 12:36:17;;;;;;;;;;;;;;;;;;4988593;28;20094;-58
2021/07/16 12:38:46;;;;;;;;;;;;;;;;;;4992432;28;19995;-57
2021/07/16 12:41:12;;;;;;;;;;;;;;;;;;4989261;28;21095;-57
2021/07/16 12:43:38;;;;;;;;;;;;;;;;;;4986748;28;19983;-57
2021/07/16 12:46:04;;;;;;;;;;;;;;;;;;4986160;28;19998;-57
2021/07/16 12:48:30;;;;;;;;;;;;;;;;;;4978886;28;20054;-57
2021/07/16 12:50:56;;;;;;;;;;;;;;;;;;4969511;28;19995;-57
2021/07/16 12:53:22;;;;;;;;;;;;;;;;;;4981197;28;20021;-57
2021/07/16 12:55:49;;;;;;;;;;;;;;;;;;4987474;28;19994;-58
2021/07/16 12:58:15;;;;;;;;;;;;;;;;;;4988639;28;20046;-57
2021/07/16 13:00:40;;;;;;;;;;;;;;;;;;4992549;28;20022;-58
2021/07/16 13:03:06;;;;;;;;;;;;;;;;;;4983910;28;20078;-58
2021/07/16 13:05:32;;;;;;;;;;;;;;;;;;4983910;28;19987;-58
2021/07/16 13:07:58;;;;;;;;;;;;;;;;;;4984743;28;19986;-59
2021/07/16 13:10:24;;;;;;;;;;;;;;;;;;4983540;28;20006;-58
2021/07/16 13:12:50;;;;;;;;;;;;;;;;;;4992765;28;20030;-58
2021/07/16 13:15:16;;;;;;;;;;;;;;;;;;5008457;28;20088;-58
2021/07/16 13:17:42;;;;;;;;;;;;;;;;;;4991871;28;19995;-58
2021/07/16 13:20:08;;;;;;;;;;;;;;;;;;4988967;28;20098;-57
2021/07/16 13:22:34;;;;;;;;;;;;;;;;;;4987776;28;20085;-57
2021/07/16 13:25:00;;;;;;;;;;;;;;;;;;4988119;28;19982;-57
2021/07/16 13:27:26;;;;;;;;;;;;;;;;;;4987011;28;19997;-57
2021/07/16 13:29:52;;;;;;;;;;;;;;;;;;4995261;28;20009;-57
2021/07/16 13:32:18;;;;;;;;;;;;;;;;;;5008859;28;19994;-57
2021/07/16 13:34:44;;;;;;;;;;;;;;;;;;4991366;28;20479;-57
2021/07/16 13:37:10;;;;;;;;;;;;;;;;;;4987979;28;19999;-57
2021/07/16 13:39:36;;;;;;;;;;;;;;;;;;4987780;28;20081;-57
2021/07/16 13:42:02;;;;;;;;;;;;;;;;;;4987172;28;19991;-57
2021/07/16 13:44:28;;;;;;;;;;;;;;;;;;4987910;28;19986;-57
2021/07/16 13:46:54;;;;;;;;;;;;;;;;;;4985837;28;20295;-57
2021/07/16 13:49:20;;;;;;;;;;;;;;;;;;4988197;28;20007;-57
2021/07/16 13:51:46;;;;;;;;;;;;;;;;;;4990680;28;19992;-57
2021/07/16 13:54:13;;;;;;;;;;;;;;;;;;4984766;28;20008;-57
2021/07/16 13:56:39;;;;;;;;;;;;;;;;;;4985948;28;20399;-57
2021/07/16 13:59:05;;;;;;;;;;;;;;;;;;4987849;28;20488;-57
2021/07/16 14:01:31;;;;;;;;;;;;;;;;;;4988378;28;19990;-57
2021/07/16 14:03:57;;;;;;;;;;;;;;;;;;4988096;28;19994;-57
2021/07/16 14:06:23;;;;;;;;;;;;;;;;;;4986774;28;20021;-57
2021/07/16 14:08:49;;;;;;;;;;;;;;;;;;4986424;28;20060;-57
2021/07/16 14:11:15;;;;;;;;;;;;;;;;;;4986953;28;20026;-57
2021/07/16 14:13:41;;;;;;;;;;;;;;;;;;4986806;28;19987;-57
2021/07/16 14:16:07;;;;;;;;;;;;;;;;;;4986192;28;19994;-57
2021/07/16 14:18:33;;;;;;;;;;;;;;;;;;4986975;28;20033;-57
2021/07/16 14:20:59;;;;;;;;;;;;;;;;;;4988125;28;19983;-57
2021/07/16 14:23:25;;;;;;;;;;;;;;;;;;4987335;28;20009;-56
2021/07/16 14:25:52;;;;;;;;;;;;;;;;;;4988164;28;19986;-58
2021/07/16 14:28:19;;;;;;;;;;;;;;;;;;4987251;28;20424;-57
2021/07/16 14:30:48;;;;;;;;;;;;;;;;;;4985703;28;20101;-57
2021/07/16 14:33:14;;;;;;;;;;;;;;;;;;4987047;28;20527;-57
2021/07/16 14:35:40;;;;;;;;;;;;;;;;;;4984935;28;20362;-57
2021/07/16 14:38:07;;;;;;;;;;;;;;;;;;4986112;28;20013;-57
2021/07/16 14:40:33;;;;;;;;;;;;;;;;;;4987394;28;20072;-58
2021/07/16 14:43:00;;;;;;;;;;;;;;;;;;4986648;28;20030;-57
2021/07/16 14:45:26;;;;;;;;;;;;;;;;;;4986591;28;20423;-57
2021/07/16 14:47:53;;;;;;;;;;;;;;;;;;4988329;28;20484;-57
2021/07/16 14:50:19;;;;;;;;;;;;;;;;;;4987227;28;20008;-57
2021/07/16 14:52:46;;;;;;;;;;;;;;;;;;4971000;28;20377;-56
2021/07/16 14:55:13;;;;;;;;;;;;;;;;;;4971305;28;20540;-57
2021/07/16 14:57:39;;;;;;;;;;;;;;;;;;4989199;28;20341;-56
2021/07/16 15:00:06;;;;;;;;;;;;;;;;;;4989667;28;20370;-56
2021/07/16 15:02:33;;;;;;;;;;;;;;;;;;4990374;28;19983;-56
2021/07/16 15:04:59;;;;;;;;;;;;;;;;;;4990087;28;20465;-56
2021/07/16 15:07:24;;;;;;;;;;;;;;;;;;4989133;28;20001;-56
2021/07/16 15:09:52;;;;;;;;;;;;;;;;;;4989981;28;20121;-56
2021/07/16 15:12:18;;;;;;;;;;;;;;;;;;4990148;28;20472;-56
2021/07/16 15:14:44;;;;;;;;;;;;;;;;;;4989629;28;20034;-55
2021/07/16 15:17:10;;;;;;;;;;;;;;;;;;4990200;28;19983;-56
2021/07/16 15:19:37;;;;;;;;;;;;;;;;;;4989102;28;19990;-57
2021/07/16 15:22:03;;;;;;;;;;;;;;;;;;4987653;28;19987;-56
2021/07/16 15:24:29;;;;;;;;;;;;;;;;;;4988873;28;20014;-57
2021/07/16 15:26:56;;;;;;;;;;;;;;;;;;4989715;28;20010;-56
2021/07/16 15:29:22;;;;;;;;;;;;;;;;;;4990000;28;20010;-57
2021/07/16 15:31:48;;;;;;;;;;;;;;;;;;4990919;28;19987;-57
2021/07/16 15:34:14;;;;;;;;;;;;;;;;;;4989169;28;20025;-57
2021/07/16 15:36:40;;;;;;;;;;;;;;;;;;4990616;28;19990;-56
2021/07/16 15:39:06;;;;;;;;;;;;;;;;;;4989876;28;20368;-57
2021/07/16 15:41:32;;;;;;;;;;;;;;;;;;4989714;28;19990;-57
2021/07/16 15:43:57;;;;;;;;;;;;;;;;;;4989867;28;19987;-57
2021/07/16 15:46:24;;;;;;;;;;;;;;;;;;4988840;28;20082;-57
2021/07/16 15:48:50;;;;;;;;;;;;;;;;;;4989614;28;20503;-56
2021/07/16 15:51:16;;;;;;;;;;;;;;;;;;4990279;28;20037;-56
2021/07/16 15:53:43;;;;;;;;;;;;;;;;;;4990395;28;20024;-57
2021/07/16 15:56:09;;;;;;;;;;;;;;;;;;4990696;28;19987;-57
2021/07/16 15:58:35;;;;;;;;;;;;;;;;;;4989223;28;20346;-57
2021/07/16 16:01:01;;;;;;;;;;;;;;;;;;4988470;28;20017;-57
2021/07/16 16:03:27;;;;;;;;;;;;;;;;;;4990131;28;19987;-57
2021/07/16 16:05:53;;;;;;;;;;;;;;;;;;4989144;28;19983;-57
2021/07/16 16:08:19;;;;;;;;;;;;;;;;;;4984527;28;19991;-56
2021/07/16 16:10:46;;;;;;;;;;;;;;;;;;4990308;28;20068;-57
2021/07/16 16:13:12;;;;;;;;;;;;;;;;;;4987333;28;19986;-56
2021/07/16 16:15:38;;;;;;;;;;;;;;;;;;4984682;28;20100;-56
2021/07/16 16:18:07;;;;;;;;;;;;;;;;;;4986486;28;19995;-57
2021/07/16 16:20:34;;;;;;;;;;;;;;;;;;4988598;28;19987;-56
2021/07/16 16:23:00;;;;;;;;;;;;;;;;;;4986829;28;20424;-55
2021/07/16 16:25:26;;;;;;;;;;;;;;;;;;4989163;28;19991;-56
2021/07/16 16:27:52;;;;;;;;;;;;;;;;;;4977369;28;19983;-56
2021/07/16 16:30:20;;;;;;;;;;;;;;;;;;4989161;28;20009;-55
2021/07/16 16:32:46;;;;;;;;;;;;;;;;;;4987051;28;19994;-56
2021/07/16 16:35:12;;;;;;;;;;;;;;;;;;4988517;28;20356;-57
2021/07/16 16:37:37;;;;;;;;;;;;;;;;;;4987079;28;19991;-56